createdAt,value
2018-04-18T00:00:06.226Z,79.00
2018-04-18T00:01:06.712Z,78.90
2018-04-18T00:02:05.944Z,78.90
2018-04-18T00:03:06.999Z,79.10
2018-04-18T00:04:06.915Z,79.00
2018-04-18T00:05:06.940Z,79.10
2018-04-18T00:06:06.993Z,79.10
2018-04-18T00:07:11.359Z,79.10
2018-04-18T00:08:06.980Z,79.10
2018-04-18T00:09:06.287Z,79.30
2018-04-18T00:10:05.633Z,79.30
2018-04-18T00:11:07.755Z,79.20
2018-04-18T00:12:09.240Z,79.40
2018-04-18T00:13:06.979Z,79.40
2018-04-18T00:14:08.223Z,79.40
2018-04-18T00:15:11.047Z,79.40
2018-04-18T00:16:06.084Z,79.40
2018-04-18T00:17:11.122Z,79.40
2018-04-18T00:18:06.828Z,79.40
2018-04-18T00:19:06.791Z,79.40
2018-04-18T00:20:10.940Z,79.40
2018-04-18T00:21:11.514Z,79.40
2018-04-18T00:22:11.760Z,79.30
2018-04-18T00:23:06.953Z,79.30
2018-04-18T00:24:07.263Z,79.30
2018-04-18T00:25:06.621Z,79.50
2018-04-18T00:26:07.207Z,79.70
2018-04-18T00:27:06.933Z,79.80
2018-04-18T00:28:06.935Z,79.80
2018-04-18T00:29:06.284Z,79.80
2018-04-18T00:30:06.992Z,79.80
2018-04-18T00:31:07.271Z,79.80
2018-04-18T00:32:06.956Z,79.60
2018-04-18T00:33:08.845Z,79.50
2018-04-18T00:34:06.577Z,79.50
2018-04-18T00:35:11.289Z,79.50
2018-04-18T00:36:10.962Z,79.60
2018-04-18T00:37:06.545Z,79.60
2018-04-18T00:38:06.453Z,79.80
2018-04-18T00:39:06.652Z,79.80
2018-04-18T00:40:07.226Z,79.80
2018-04-18T00:41:08.615Z,79.70
2018-04-18T00:42:06.326Z,79.80
2018-04-18T00:43:06.972Z,79.90
2018-04-18T00:44:06.189Z,79.80
2018-04-18T00:45:11.834Z,79.80
2018-04-18T00:46:07.189Z,79.80
2018-04-18T00:47:06.845Z,79.80
2018-04-18T00:48:07.377Z,79.90
2018-04-18T00:49:08.805Z,79.70
2018-04-18T00:50:11.590Z,79.70
2018-04-18T00:51:06.661Z,79.70
2018-04-18T00:52:06.756Z,79.60
2018-04-18T00:53:06.627Z,79.70
2018-04-18T00:54:06.828Z,79.70
2018-04-18T00:55:06.706Z,79.80
2018-04-18T00:56:14.085Z,80.00
2018-04-18T00:57:06.311Z,80.00
2018-04-18T00:58:06.849Z,80.00
2018-04-18T00:59:06.703Z,80.00
2018-04-18T01:00:06.728Z,80.00
2018-04-18T01:01:06.514Z,80.10
2018-04-18T01:02:09.552Z,80.20
2018-04-18T01:03:11.206Z,80.10
2018-04-18T01:04:10.904Z,80.00
2018-04-18T01:05:07.655Z,80.00
2018-04-18T01:06:06.139Z,80.00
2018-04-18T01:07:07.259Z,79.90
2018-04-18T01:08:07.564Z,79.90
2018-04-18T01:09:06.557Z,79.90
2018-04-18T01:10:06.895Z,79.90
2018-04-18T01:11:06.220Z,80.00
2018-04-18T01:12:06.324Z,80.20
2018-04-18T01:13:11.327Z,81.00
2018-04-18T01:14:08.640Z,81.50
2018-04-18T01:15:07.029Z,81.60
2018-04-18T01:16:06.217Z,81.80
2018-04-18T01:17:06.313Z,81.90
2018-04-18T01:18:06.364Z,82.00
2018-04-18T01:19:11.139Z,81.80
2018-04-18T01:20:07.247Z,81.80
2018-04-18T01:21:06.954Z,81.70
2018-04-18T01:22:06.317Z,81.70
2018-04-18T01:23:10.760Z,81.50
2018-04-18T01:24:11.372Z,81.50
2018-04-18T01:25:06.641Z,81.50
2018-04-18T01:26:13.249Z,81.50
2018-04-18T01:27:07.227Z,81.50
2018-04-18T01:28:06.270Z,81.50
2018-04-18T01:29:06.855Z,81.40
2018-04-18T01:30:06.703Z,81.40
2018-04-18T01:31:06.962Z,81.40
2018-04-18T01:32:06.689Z,81.30
2018-04-18T01:33:07.565Z,81.40
2018-04-18T01:34:11.370Z,81.30
2018-04-18T01:35:06.712Z,81.30
2018-04-18T01:36:07.305Z,81.40
2018-04-18T01:37:07.134Z,81.30
2018-04-18T01:38:08.256Z,81.30
2018-04-18T01:39:06.402Z,81.30
2018-04-18T01:40:07.077Z,81.80
2018-04-18T01:41:07.697Z,81.70
2018-04-18T01:42:09.130Z,81.70
2018-04-18T01:43:06.641Z,81.70
2018-04-18T01:44:11.010Z,81.70
2018-04-18T01:45:05.769Z,81.60
2018-04-18T01:46:06.330Z,81.60
2018-04-18T01:47:06.979Z,81.60
2018-04-18T01:48:06.962Z,81.50
2018-04-18T01:49:08.707Z,81.60
2018-04-18T01:50:06.685Z,81.60
2018-04-18T01:51:11.320Z,81.50
2018-04-18T01:52:11.395Z,81.50
2018-04-18T01:53:06.671Z,81.40
2018-04-18T01:54:07.038Z,81.50
2018-04-18T01:55:08.098Z,81.30
2018-04-18T01:56:06.415Z,81.30
2018-04-18T01:57:11.020Z,81.30
2018-04-18T01:58:11.597Z,81.40
2018-04-18T01:59:06.799Z,81.30
2018-04-18T02:00:06.896Z,81.20
2018-04-18T02:01:06.826Z,81.20
2018-04-18T02:02:06.303Z,81.20
2018-04-18T02:03:11.898Z,81.10
2018-04-18T02:04:07.246Z,81.10
2018-04-18T02:05:06.693Z,81.10
2018-04-18T02:06:08.340Z,81.10
2018-04-18T02:07:07.316Z,81.10
2018-04-18T02:08:11.067Z,81.20
2018-04-18T02:09:06.970Z,81.30
2018-04-18T02:10:07.082Z,81.40
2018-04-18T02:11:07.338Z,81.30
2018-04-18T02:12:07.658Z,81.30
2018-04-18T02:13:07.392Z,81.50
2018-04-18T02:14:08.599Z,81.30
2018-04-18T02:15:06.779Z,81.30
2018-04-18T02:16:06.693Z,81.30
2018-04-18T02:17:10.798Z,81.40
2018-04-18T02:18:07.332Z,81.40
2018-04-18T02:19:08.812Z,81.40
2018-04-18T02:20:07.671Z,81.40
2018-04-18T02:21:06.905Z,81.60
2018-04-18T02:22:07.650Z,81.60
2018-04-18T02:23:11.347Z,81.60
2018-04-18T02:24:06.310Z,81.60
2018-04-18T02:25:06.332Z,81.70
2018-04-18T02:26:06.715Z,81.60
2018-04-18T02:27:06.243Z,81.60
2018-04-18T02:28:06.874Z,81.60
2018-04-18T02:29:07.127Z,81.70
2018-04-18T02:30:06.356Z,81.60
2018-04-18T02:31:07.453Z,81.70
2018-04-18T02:32:06.885Z,81.60
2018-04-18T02:33:06.137Z,81.60
2018-04-18T02:34:07.020Z,81.40
2018-04-18T02:35:06.163Z,81.60
2018-04-18T02:36:06.411Z,81.50
2018-04-18T02:37:08.597Z,81.60
2018-04-18T02:38:08.690Z,81.90
2018-04-18T02:39:06.088Z,81.90
2018-04-18T02:40:10.686Z,82.30
2018-04-18T02:41:06.745Z,82.30
2018-04-18T02:42:11.383Z,82.40
2018-04-18T02:43:13.862Z,82.60
2018-04-18T02:44:06.708Z,82.60
2018-04-18T02:45:07.132Z,82.60
2018-04-18T02:46:06.646Z,82.50
2018-04-18T02:47:11.577Z,82.40
2018-04-18T02:48:11.239Z,82.40
2018-04-18T02:49:07.444Z,82.40
2018-04-18T02:50:07.024Z,82.30
2018-04-18T02:51:06.420Z,82.30
2018-04-18T02:52:07.011Z,82.30
2018-04-18T02:53:07.387Z,82.30
2018-04-18T02:54:06.170Z,82.30
2018-04-18T02:55:07.175Z,82.20
2018-04-18T02:56:11.003Z,82.20
2018-04-18T02:57:08.139Z,82.20
2018-04-18T02:58:07.056Z,82.30
2018-04-18T02:59:06.116Z,82.30
2018-04-18T03:00:07.290Z,82.30
2018-04-18T03:01:07.482Z,82.30
2018-04-18T03:02:10.570Z,82.20
2018-04-18T03:03:11.683Z,82.20
2018-04-18T03:04:06.713Z,82.20
2018-04-18T03:05:06.996Z,82.20
2018-04-18T03:06:07.325Z,82.20
2018-04-18T03:07:09.041Z,82.40
2018-04-18T03:08:06.090Z,82.40
2018-04-18T03:09:06.934Z,82.40
2018-04-18T03:10:07.016Z,82.40
2018-04-18T03:11:11.028Z,82.40
2018-04-18T03:12:09.371Z,82.20
2018-04-18T03:13:11.279Z,82.20
2018-04-18T03:14:06.830Z,82.20
2018-04-18T03:15:06.320Z,82.10
2018-04-18T03:16:07.130Z,82.10
2018-04-18T03:17:06.985Z,82.10
2018-04-18T03:18:11.163Z,82.10
2018-04-18T03:19:11.121Z,82.10
2018-04-18T03:20:07.726Z,82.10
2018-04-18T03:21:06.948Z,82.10
2018-04-18T03:22:06.180Z,82.10
2018-04-18T03:23:07.089Z,82.10
2018-04-18T03:24:11.394Z,82.10
2018-04-18T03:25:06.591Z,82.10
2018-04-18T03:26:16.641Z,82.10
2018-04-18T03:27:07.772Z,82.00
2018-04-18T03:28:07.491Z,82.10
2018-04-18T03:29:13.741Z,81.80
2018-04-18T03:30:08.649Z,81.90
2018-04-18T03:31:11.239Z,81.70
2018-04-18T03:32:11.348Z,81.70
2018-04-18T03:33:06.845Z,81.70
2018-04-18T03:34:06.364Z,81.80
2018-04-18T03:35:08.562Z,81.70
2018-04-18T03:36:07.746Z,81.70
2018-04-18T03:37:10.814Z,81.80
2018-04-18T03:38:06.935Z,81.80
2018-04-18T03:39:06.774Z,81.70
2018-04-18T03:40:07.093Z,81.90
2018-04-18T03:41:07.046Z,81.90
2018-04-18T03:42:11.081Z,81.60
2018-04-18T03:43:10.835Z,82.10
2018-04-18T03:44:06.851Z,82.10
2018-04-18T03:45:09.722Z,82.10
2018-04-18T03:46:07.009Z,82.00
2018-04-18T03:47:06.958Z,82.00
2018-04-18T03:48:06.830Z,82.00
2018-04-18T03:49:06.927Z,82.00
2018-04-18T03:50:06.771Z,30.90
2018-04-18T03:51:16.467Z,82.10
2018-04-18T03:52:06.449Z,82.10
2018-04-18T03:53:07.173Z,82.10
2018-04-18T03:54:07.088Z,82.10
2018-04-18T03:55:06.606Z,82.10
2018-04-18T03:56:11.358Z,82.10
2018-04-18T03:57:06.821Z,82.10
2018-04-18T03:58:06.627Z,82.00
2018-04-18T03:59:09.146Z,81.90
2018-04-18T04:00:07.180Z,81.90
2018-04-18T04:01:06.231Z,81.90
2018-04-18T04:02:10.633Z,81.90
2018-04-18T04:03:06.878Z,81.90
2018-04-18T04:04:08.550Z,81.90
2018-04-18T04:05:06.527Z,81.90
2018-04-18T04:06:08.337Z,82.00
2018-04-18T04:07:06.305Z,82.00
2018-04-18T04:08:11.387Z,82.20
2018-04-18T04:09:06.580Z,82.20
2018-04-18T04:10:11.866Z,82.20
2018-04-18T04:11:09.040Z,82.30
2018-04-18T04:12:06.232Z,82.40
2018-04-18T04:13:09.052Z,82.40
2018-04-18T04:14:07.242Z,82.40
2018-04-18T04:15:06.940Z,82.40
2018-04-18T04:16:06.189Z,82.40
2018-04-18T04:17:06.397Z,82.40
2018-04-18T04:18:10.914Z,82.40
2018-04-18T04:19:14.057Z,82.50
2018-04-18T04:20:06.323Z,82.40
2018-04-18T04:21:11.775Z,82.60
2018-04-18T04:22:06.808Z,82.60
2018-04-18T04:23:08.562Z,82.60
2018-04-18T04:24:06.975Z,82.60
2018-04-18T04:25:11.557Z,82.60
2018-04-18T04:26:07.507Z,82.50
2018-04-18T04:27:07.017Z,82.50
2018-04-18T04:28:06.876Z,82.40
2018-04-18T04:29:07.272Z,82.60
2018-04-18T04:30:07.896Z,82.50
2018-04-18T04:31:11.540Z,82.40
2018-04-18T04:32:06.334Z,82.40
2018-04-18T04:33:06.509Z,82.40
2018-04-18T04:34:06.222Z,82.40
2018-04-18T04:35:07.194Z,82.40
2018-04-18T04:36:06.839Z,82.40
2018-04-18T04:37:08.117Z,82.40
2018-04-18T04:38:06.414Z,82.40
2018-04-18T04:39:06.600Z,82.60
2018-04-18T04:40:07.259Z,82.60
2018-04-18T04:41:07.041Z,82.60
2018-04-18T04:42:08.928Z,82.70
2018-04-18T04:43:06.308Z,82.70
2018-04-18T04:44:07.055Z,82.70
2018-04-18T04:45:06.214Z,82.70
2018-04-18T04:46:07.164Z,82.70
2018-04-18T04:47:06.927Z,82.80
2018-04-18T04:48:09.159Z,83.00
2018-04-18T04:49:07.221Z,83.00
2018-04-18T04:50:06.284Z,83.10
2018-04-18T04:51:06.837Z,83.00
2018-04-18T04:52:06.416Z,83.00
2018-04-18T04:53:07.164Z,83.10
2018-04-18T04:54:07.246Z,83.10
2018-04-18T04:55:11.389Z,83.20
2018-04-18T04:56:08.436Z,83.40
2018-04-18T04:57:07.033Z,83.40
2018-04-18T04:58:06.438Z,83.50
2018-04-18T04:59:06.240Z,83.70
2018-04-18T05:00:06.149Z,83.80
2018-04-18T05:01:07.255Z,83.80
2018-04-18T05:02:10.941Z,83.70
2018-04-18T05:03:07.199Z,83.80
2018-04-18T05:04:06.847Z,83.80
2018-04-18T05:05:06.415Z,83.80
2018-04-18T05:06:06.685Z,83.70
2018-04-18T05:07:06.995Z,83.70
2018-04-18T05:08:06.315Z,83.70
2018-04-18T05:09:09.846Z,83.50
2018-04-18T05:10:07.316Z,83.60
2018-04-18T05:11:07.092Z,83.50
2018-04-18T05:12:08.452Z,83.20
2018-04-18T05:13:06.966Z,83.20
2018-04-18T05:14:06.523Z,83.10
2018-04-18T05:15:09.774Z,82.70
2018-04-18T05:16:11.766Z,82.50
2018-04-18T05:17:16.196Z,82.20
2018-04-18T05:18:07.690Z,82.30
2018-04-18T05:19:13.969Z,82.00
2018-04-18T05:20:06.379Z,82.00
2018-04-18T05:21:11.508Z,81.80
2018-04-18T05:22:07.324Z,81.70
2018-04-18T05:23:08.969Z,81.40
2018-04-18T05:24:06.157Z,81.40
2018-04-18T05:25:06.934Z,81.20
2018-04-18T05:26:08.940Z,80.70
2018-04-18T05:27:11.669Z,80.70
2018-04-18T05:28:07.061Z,80.60
2018-04-18T05:29:06.237Z,80.20
2018-04-18T05:30:08.613Z,79.90
2018-04-18T05:31:06.378Z,79.90
2018-04-18T05:32:06.245Z,79.70
2018-04-18T05:33:08.945Z,79.10
2018-04-18T05:34:08.037Z,78.80
2018-04-18T05:35:06.211Z,78.80
2018-04-18T05:36:11.556Z,78.40
2018-04-18T05:37:06.566Z,78.30
2018-04-18T05:38:07.009Z,78.00
2018-04-18T05:39:10.676Z,77.60
2018-04-18T05:40:06.948Z,77.60
2018-04-18T05:41:06.969Z,77.30
2018-04-18T05:42:08.850Z,76.60
2018-04-18T05:43:07.182Z,76.60
2018-04-18T05:44:06.874Z,76.00
2018-04-18T05:45:07.180Z,75.60
2018-04-18T05:46:06.542Z,75.40
2018-04-18T05:47:06.873Z,75.00
2018-04-18T05:48:06.813Z,74.70
2018-04-18T05:49:07.576Z,74.00
2018-04-18T05:50:11.486Z,72.90
2018-04-18T05:51:11.084Z,73.00
2018-04-18T05:52:06.389Z,73.00
2018-04-18T05:53:07.204Z,72.50
2018-04-18T05:54:07.043Z,72.10
2018-04-18T05:55:07.161Z,71.70
2018-04-18T05:56:06.665Z,71.20
2018-04-18T05:57:07.428Z,70.80
2018-04-18T05:58:07.445Z,70.40
2018-04-18T05:59:09.885Z,69.50
2018-04-18T06:00:07.023Z,69.50
2018-04-18T06:01:06.656Z,69.50
2018-04-18T06:02:06.619Z,69.50
2018-04-18T06:03:10.702Z,69.40
2018-04-18T06:04:06.417Z,69.40
2018-04-18T06:05:07.071Z,69.50
2018-04-18T06:06:07.254Z,69.00
2018-04-18T06:07:06.294Z,67.80
2018-04-18T06:08:06.314Z,67.70
2018-04-18T06:09:06.285Z,67.80
2018-04-18T06:10:06.868Z,67.80
2018-04-18T06:11:10.174Z,67.20
2018-04-18T06:12:11.417Z,67.10
2018-04-18T06:13:06.312Z,67.00
2018-04-18T06:14:16.410Z,66.50
2018-04-18T06:15:06.685Z,66.50
2018-04-18T06:16:06.229Z,66.40
2018-04-18T06:17:07.235Z,66.50
2018-04-18T06:18:07.482Z,66.30
2018-04-18T06:19:07.297Z,65.60
2018-04-18T06:20:06.858Z,65.30
2018-04-18T06:21:07.233Z,65.50
2018-04-18T06:22:08.855Z,64.60
2018-04-18T06:23:07.109Z,64.60
2018-04-18T06:24:09.219Z,64.20
2018-04-18T06:25:06.380Z,64.20
2018-04-18T06:26:15.566Z,64.00
2018-04-18T06:27:06.491Z,63.40
2018-04-18T06:28:07.203Z,63.30
2018-04-18T06:29:07.875Z,63.30
2018-04-18T06:30:10.923Z,62.70
2018-04-18T06:31:13.915Z,61.80
2018-04-18T06:32:07.144Z,61.60
2018-04-18T06:33:11.531Z,61.00
2018-04-18T06:34:11.390Z,61.60
2018-04-18T06:35:06.740Z,61.50
2018-04-18T06:36:06.423Z,61.60
2018-04-18T06:37:07.279Z,61.40
2018-04-18T06:38:07.199Z,61.00
2018-04-18T06:39:09.040Z,60.70
2018-04-18T06:40:10.770Z,60.90
2018-04-18T06:41:06.706Z,60.80
2018-04-18T06:42:06.534Z,60.90
2018-04-18T06:43:06.959Z,61.10
2018-04-18T06:44:07.997Z,60.30
2018-04-18T06:45:06.040Z,59.80
2018-04-18T06:46:11.401Z,59.50
2018-04-18T06:47:10.853Z,59.50
2018-04-18T06:48:11.345Z,59.50
2018-04-18T06:49:07.294Z,59.00
2018-04-18T06:50:06.901Z,59.00
2018-04-18T06:51:06.773Z,58.20
2018-04-18T06:52:08.765Z,57.70
2018-04-18T06:53:11.590Z,57.80
2018-04-18T06:54:11.624Z,57.60
2018-04-18T06:55:08.793Z,57.60
2018-04-18T06:56:07.609Z,57.60
2018-04-18T06:57:07.886Z,56.80
2018-04-18T06:58:06.568Z,56.70
2018-04-18T06:59:07.142Z,56.40
2018-04-18T07:00:08.843Z,55.20
2018-04-18T07:01:06.891Z,55.10
2018-04-18T07:02:07.273Z,54.50
2018-04-18T07:03:11.146Z,54.20
2018-04-18T07:04:06.649Z,54.30
2018-04-18T07:05:07.862Z,54.10
2018-04-18T07:06:10.793Z,54.10
2018-04-18T07:07:11.481Z,53.60
2018-04-18T07:08:06.642Z,53.60
2018-04-18T07:09:11.112Z,53.20
2018-04-18T07:10:08.517Z,53.10
2018-04-18T07:11:06.355Z,52.90
2018-04-18T07:12:08.749Z,52.20
2018-04-18T07:13:06.993Z,0.90
2018-04-18T07:14:06.970Z,52.30
2018-04-18T07:15:06.432Z,52.50
2018-04-18T07:16:06.971Z,52.40
2018-04-18T07:17:09.554Z,51.80
2018-04-18T07:18:06.817Z,51.80
2018-04-18T07:19:06.665Z,51.80
2018-04-18T07:20:07.043Z,52.10
2018-04-18T07:21:08.544Z,51.60
2018-04-18T07:22:09.387Z,51.50
2018-04-18T07:23:07.325Z,51.50
2018-04-18T07:24:06.423Z,51.60
2018-04-18T07:25:15.708Z,51.80
2018-04-18T07:26:08.992Z,51.20
2018-04-18T07:27:07.085Z,51.10
2018-04-18T07:28:06.869Z,50.60
2018-04-18T07:29:06.427Z,50.70
2018-04-18T07:30:06.010Z,51.30
2018-04-18T07:31:06.498Z,51.70
2018-04-18T07:32:08.655Z,51.90
2018-04-18T07:33:06.940Z,51.90
2018-04-18T07:34:07.037Z,51.50
2018-04-18T07:35:10.911Z,50.10
2018-04-18T07:36:11.791Z,50.00
2018-04-18T07:37:11.478Z,50.10
2018-04-18T07:38:06.428Z,50.10
2018-04-18T07:39:07.542Z,50.30
2018-04-18T07:40:07.716Z,50.10
2018-04-18T07:41:08.352Z,50.30
2018-04-18T07:42:08.791Z,51.00
2018-04-18T07:43:11.498Z,50.70
2018-04-18T07:44:07.521Z,50.80
2018-04-18T07:45:07.193Z,50.60
2018-04-18T07:46:06.589Z,50.20
2018-04-18T07:47:08.297Z,50.20
2018-04-18T07:48:06.475Z,50.60
2018-04-18T07:49:06.840Z,50.80
2018-04-18T07:50:06.599Z,51.00
2018-04-18T07:51:08.971Z,50.90
2018-04-18T07:52:07.313Z,50.90
2018-04-18T07:53:06.098Z,50.70
2018-04-18T07:54:06.637Z,50.90
2018-04-18T07:55:06.404Z,50.50
2018-04-18T07:56:07.321Z,50.00
2018-04-18T07:57:10.743Z,50.70
2018-04-18T07:58:07.022Z,50.70
2018-04-18T07:59:06.020Z,51.20
2018-04-18T08:00:07.064Z,51.00
2018-04-18T08:01:06.731Z,51.20
2018-04-18T08:02:07.637Z,50.90
2018-04-18T08:03:11.302Z,51.30
2018-04-18T08:04:08.207Z,51.30
2018-04-18T08:05:08.591Z,51.20
2018-04-18T08:06:06.406Z,51.20
2018-04-18T08:07:06.641Z,51.60
2018-04-18T08:08:06.409Z,51.60
2018-04-18T08:09:06.549Z,50.20
2018-04-18T08:10:06.031Z,50.10
2018-04-18T08:11:06.112Z,50.40
2018-04-18T08:12:06.849Z,50.50
2018-04-18T08:13:07.363Z,51.00
2018-04-18T08:14:07.171Z,51.30
2018-04-18T08:15:07.596Z,51.20
2018-04-18T08:16:07.351Z,51.30
2018-04-18T08:17:06.581Z,51.50
2018-04-18T08:18:10.860Z,51.60
2018-04-18T08:19:11.406Z,51.60
2018-04-18T08:20:07.528Z,52.00
2018-04-18T08:21:06.709Z,51.90
2018-04-18T08:22:07.058Z,52.00
2018-04-18T08:23:07.204Z,51.60
2018-04-18T08:24:06.616Z,51.60
2018-04-18T08:25:07.204Z,52.00
2018-04-18T08:26:06.481Z,52.10
2018-04-18T08:27:08.433Z,51.80
2018-04-18T08:28:06.805Z,51.80
2018-04-18T08:29:06.705Z,51.50
2018-04-18T08:30:06.463Z,51.10
2018-04-18T08:31:07.187Z,51.50
2018-04-18T08:32:06.732Z,51.10
2018-04-18T08:33:07.465Z,50.70
2018-04-18T08:34:06.560Z,50.50
2018-04-18T08:35:06.006Z,50.80
2018-04-18T08:36:08.846Z,50.90
2018-04-18T08:37:09.097Z,50.70
2018-04-18T08:38:06.557Z,50.60
2018-04-18T08:39:06.565Z,50.30
2018-04-18T08:40:06.641Z,50.00
2018-04-18T08:41:07.209Z,49.40
2018-04-18T08:42:08.633Z,50.00
2018-04-18T08:43:06.671Z,49.90
2018-04-18T08:44:06.013Z,49.70
2018-04-18T08:45:06.749Z,49.60
2018-04-18T08:46:07.317Z,49.20
2018-04-18T08:47:06.744Z,48.80
2018-04-18T08:48:08.844Z,47.10
2018-04-18T08:49:14.137Z,47.40
2018-04-18T08:50:08.288Z,47.80
2018-04-18T08:51:06.060Z,47.80
2018-04-18T08:52:06.692Z,48.00
2018-04-18T08:53:07.412Z,48.00
2018-04-18T08:54:13.791Z,47.20
2018-04-18T08:55:14.581Z,47.20
2018-04-18T08:56:06.699Z,47.20
2018-04-18T08:57:05.962Z,47.30
2018-04-18T08:58:11.295Z,47.70
2018-04-18T08:59:10.886Z,47.80
2018-04-18T09:00:11.125Z,47.50
2018-04-18T09:01:06.695Z,47.50
2018-04-18T09:02:06.785Z,47.20
2018-04-18T09:03:10.927Z,46.60
2018-04-18T09:04:07.518Z,46.60
2018-04-18T09:05:08.643Z,47.10
2018-04-18T09:06:06.767Z,47.10
2018-04-18T09:07:06.768Z,46.90
2018-04-18T09:08:11.134Z,46.80
2018-04-18T09:09:06.276Z,45.70
2018-04-18T09:10:07.074Z,45.40
2018-04-18T09:11:06.783Z,46.00
2018-04-18T09:12:06.541Z,46.20
2018-04-18T09:13:08.978Z,46.30
2018-04-18T09:14:07.260Z,46.20
2018-04-18T09:15:06.815Z,46.40
2018-04-18T09:16:06.405Z,46.10
2018-04-18T09:17:06.564Z,46.10
2018-04-18T09:18:07.286Z,46.10
2018-04-18T09:19:12.075Z,45.70
2018-04-18T09:20:13.735Z,45.50
2018-04-18T09:21:11.351Z,45.50
2018-04-18T09:22:07.021Z,45.50
2018-04-18T09:23:12.000Z,45.60
2018-04-18T09:24:06.423Z,45.50
2018-04-18T09:25:06.354Z,45.00
2018-04-18T09:26:06.731Z,42.20
2018-04-18T09:27:07.340Z,42.20
2018-04-18T09:28:08.695Z,41.40
2018-04-18T09:29:07.383Z,41.30
2018-04-18T09:30:11.094Z,41.20
2018-04-18T09:31:08.835Z,41.40
2018-04-18T09:32:07.131Z,41.30
2018-04-18T09:33:11.333Z,41.90
2018-04-18T09:34:06.488Z,41.90
2018-04-18T09:35:07.102Z,42.20
2018-04-18T09:36:07.311Z,42.10
2018-04-18T09:37:07.410Z,41.00
2018-04-18T09:38:07.307Z,41.30
2018-04-18T09:39:11.458Z,41.70
2018-04-18T09:40:06.183Z,41.10
2018-04-18T09:41:06.095Z,40.40
2018-04-18T09:42:06.481Z,40.90
2018-04-18T09:43:07.275Z,39.50
2018-04-18T09:44:08.480Z,39.30
2018-04-18T09:45:06.677Z,39.40
2018-04-18T09:46:08.978Z,39.80
2018-04-18T09:47:09.091Z,40.00
2018-04-18T09:48:10.854Z,40.00
2018-04-18T09:49:07.249Z,40.00
2018-04-18T09:50:06.825Z,39.70
2018-04-18T09:51:08.457Z,39.50
2018-04-18T09:52:06.840Z,39.50
2018-04-18T09:53:06.929Z,38.40
2018-04-18T09:54:06.482Z,37.60
2018-04-18T09:55:06.582Z,38.00
2018-04-18T09:56:07.410Z,38.10
2018-04-18T09:57:06.610Z,37.00
2018-04-18T09:58:10.749Z,37.60
2018-04-18T09:59:06.695Z,37.60
2018-04-18T10:00:06.767Z,37.70
2018-04-18T10:01:06.435Z,38.00
2018-04-18T10:02:06.563Z,38.40
2018-04-18T10:03:07.170Z,38.50
2018-04-18T10:04:06.432Z,38.60
2018-04-18T10:05:07.318Z,39.10
2018-04-18T10:06:06.824Z,37.70
2018-04-18T10:07:06.203Z,37.10
2018-04-18T10:08:07.255Z,35.60
2018-04-18T10:09:06.626Z,35.70
2018-04-18T10:10:07.514Z,35.00
2018-04-18T10:11:07.050Z,35.00
2018-04-18T10:12:06.675Z,33.80
2018-04-18T10:13:06.146Z,34.80
2018-04-18T10:14:07.351Z,35.20
2018-04-18T10:15:08.537Z,36.60
2018-04-18T10:16:07.560Z,36.60
2018-04-18T10:17:09.127Z,36.50
2018-04-18T10:18:06.872Z,36.40
2018-04-18T10:19:07.088Z,36.60
2018-04-18T10:20:06.652Z,36.50
2018-04-18T10:21:06.099Z,35.60
2018-04-18T10:22:07.232Z,34.50
2018-04-18T10:23:08.054Z,34.60
2018-04-18T10:24:10.811Z,35.60
2018-04-18T10:25:07.551Z,35.60
2018-04-18T10:26:11.503Z,34.10
2018-04-18T10:27:08.798Z,32.90
2018-04-18T10:28:07.524Z,32.80
2018-04-18T10:29:06.530Z,32.30
2018-04-18T10:30:06.170Z,33.80
2018-04-18T10:31:06.612Z,34.50
2018-04-18T10:32:06.137Z,34.90
2018-04-18T10:33:16.069Z,34.80
2018-04-18T10:34:06.714Z,34.90
2018-04-18T10:35:09.233Z,35.30
2018-04-18T10:36:08.449Z,34.00
2018-04-18T10:37:06.247Z,34.10
2018-04-18T10:38:08.619Z,34.30
2018-04-18T10:39:09.084Z,33.80
2018-04-18T10:40:07.044Z,33.80
2018-04-18T10:41:16.259Z,33.70
2018-04-18T10:42:10.875Z,33.40
2018-04-18T10:43:08.641Z,33.90
2018-04-18T10:44:06.954Z,33.90
2018-04-18T10:45:07.195Z,33.90
2018-04-18T10:46:07.576Z,34.00
2018-04-18T10:47:07.000Z,34.10
2018-04-18T10:48:06.561Z,33.30
2018-04-18T10:49:09.386Z,33.70
2018-04-18T10:50:07.342Z,33.70
2018-04-18T10:51:06.613Z,33.70
2018-04-18T10:52:06.232Z,34.00
2018-04-18T10:53:07.492Z,32.90
2018-04-18T10:54:07.361Z,33.70
2018-04-18T10:55:10.811Z,33.20
2018-04-18T10:56:06.934Z,32.50
2018-04-18T10:57:09.327Z,33.50
2018-04-18T10:58:07.020Z,33.50
2018-04-18T10:59:10.848Z,32.50
2018-04-18T11:00:11.383Z,33.20
2018-04-18T11:01:08.456Z,33.90
2018-04-18T11:02:07.449Z,33.90
2018-04-18T11:03:06.878Z,33.00
2018-04-18T11:04:07.619Z,32.20
2018-04-18T11:05:07.172Z,31.80
2018-04-18T11:06:06.815Z,32.40
2018-04-18T11:07:11.219Z,32.90
2018-04-18T11:08:06.885Z,32.80
2018-04-18T11:09:06.547Z,32.50
2018-04-18T11:10:11.713Z,32.70
2018-04-18T11:11:06.906Z,32.80
2018-04-18T11:12:14.763Z,33.60
2018-04-18T11:13:07.291Z,33.60
2018-04-18T11:14:06.702Z,32.30
2018-04-18T11:15:08.120Z,32.30
2018-04-18T11:16:06.549Z,32.40
2018-04-18T11:17:06.545Z,32.50
2018-04-18T11:18:07.281Z,32.60
2018-04-18T11:19:10.827Z,32.20
2018-04-18T11:20:08.312Z,32.50
2018-04-18T11:21:11.210Z,32.50
2018-04-18T11:22:06.484Z,32.70
2018-04-18T11:23:08.844Z,32.40
2018-04-18T11:24:13.211Z,33.30
2018-04-18T11:25:07.368Z,33.30
2018-04-18T11:26:06.522Z,32.50
2018-04-18T11:27:06.838Z,32.30
2018-04-18T11:28:08.523Z,32.10
2018-04-18T11:29:07.493Z,32.10
2018-04-18T11:30:10.850Z,31.90
2018-04-18T11:31:07.370Z,32.00
2018-04-18T11:32:06.921Z,32.20
2018-04-18T11:33:10.821Z,33.20
2018-04-18T11:34:06.856Z,33.20
2018-04-18T11:35:06.686Z,33.00
2018-04-18T11:36:06.294Z,32.60
2018-04-18T11:37:06.675Z,32.30
2018-04-18T11:38:11.497Z,32.20
2018-04-18T11:39:06.249Z,32.90
2018-04-18T11:40:07.181Z,33.30
2018-04-18T11:41:11.364Z,32.70
2018-04-18T11:42:06.911Z,32.10
2018-04-18T11:43:06.845Z,32.60
2018-04-18T11:44:06.132Z,33.00
2018-04-18T11:45:07.688Z,32.70
2018-04-18T11:46:13.424Z,32.90
2018-04-18T11:47:08.873Z,32.30
2018-04-18T11:48:06.248Z,32.40
2018-04-18T11:49:06.379Z,32.90
2018-04-18T11:50:06.696Z,32.00
2018-04-18T11:51:07.192Z,31.80
2018-04-18T11:52:06.944Z,31.30
2018-04-18T11:53:11.285Z,32.20
2018-04-18T11:54:06.483Z,32.20
2018-04-18T11:55:11.738Z,31.80
2018-04-18T11:56:07.360Z,31.80
2018-04-18T11:57:06.654Z,31.60
2018-04-18T11:58:06.631Z,31.20
2018-04-18T11:59:11.227Z,32.40
2018-04-18T12:00:07.249Z,32.30
2018-04-18T12:01:07.600Z,31.80
2018-04-18T12:02:06.557Z,31.90
2018-04-18T12:03:06.621Z,31.40
2018-04-18T12:04:07.155Z,31.50
2018-04-18T12:05:06.688Z,30.60
2018-04-18T12:06:07.332Z,31.40
2018-04-18T12:07:08.939Z,30.90
2018-04-18T12:08:06.630Z,31.00
2018-04-18T12:09:07.343Z,31.30
2018-04-18T12:10:13.465Z,31.30
2018-04-18T12:11:08.020Z,31.20
2018-04-18T12:12:10.737Z,31.10
2018-04-18T12:13:06.598Z,31.30
2018-04-18T12:14:06.915Z,31.10
2018-04-18T12:15:07.931Z,31.70
2018-04-18T12:16:10.294Z,32.10
2018-04-18T12:17:08.229Z,32.20
2018-04-18T12:18:07.385Z,32.00
2018-04-18T12:19:11.411Z,30.70
2018-04-18T12:20:07.646Z,29.70
2018-04-18T12:21:07.313Z,29.90
2018-04-18T12:22:08.589Z,31.00
2018-04-18T12:23:11.988Z,31.00
2018-04-18T12:24:08.326Z,31.20
2018-04-18T12:25:07.094Z,31.20
2018-04-18T12:26:07.525Z,31.30
2018-04-18T12:27:07.741Z,30.90
2018-04-18T12:28:09.196Z,29.30
2018-04-18T12:29:13.485Z,28.60
2018-04-18T12:30:11.056Z,29.60
2018-04-18T12:31:06.511Z,29.60
2018-04-18T12:32:07.267Z,29.60
2018-04-18T12:33:06.367Z,30.00
2018-04-18T12:34:07.436Z,30.10
2018-04-18T12:35:06.789Z,30.20
2018-04-18T12:36:06.374Z,29.30
2018-04-18T12:37:10.914Z,29.20
2018-04-18T12:38:06.738Z,29.20
2018-04-18T12:39:06.345Z,29.80
2018-04-18T12:40:11.253Z,29.30
2018-04-18T12:41:06.312Z,29.30
2018-04-18T12:42:07.748Z,29.10
2018-04-18T12:43:06.943Z,28.90
2018-04-18T12:44:07.381Z,28.50
2018-04-18T12:45:07.427Z,28.80
2018-04-18T12:46:06.869Z,29.00
2018-04-18T12:47:06.673Z,30.00
2018-04-18T12:48:06.453Z,30.00
2018-04-18T12:49:12.354Z,30.40
2018-04-18T12:50:08.697Z,29.50
2018-04-18T12:51:08.672Z,29.60
2018-04-18T12:52:07.508Z,29.50